Empire, Ohio
Current Conditions -  °F | °C
As of 1:51 PM on Sunday 23 Nov 2014 (Local Time) from KPIT Reporting Station
Overcast Overcast  
Wind Chill: 63°   Ceiling: 13000
Heat Index: 63°   Visibility: 10mi
Dew Point: 44°   Wind: 8mph
Humidity: 50%   Direction: 150°SSE
Pressure: 29.93"   Gusts: NA
Location:  40.51°N, 80.62°W
Report Text: KPIT 231851Z 15007KT 10SM FEW038 BKN130 OVC200 17/07 A2993 RMK AO2 SLP142 T01720067
Loading
Personal Weather Stations






























Interactive Weather Map New forecast layout! Learn more

10-Day Weather Forecast

Advertisements
Track Severe Weather on mobile